createdAt,value
2023-11-23T00:00:21.537Z,21.10
2023-11-23T00:03:09.333Z,23.60
2023-11-23T00:05:37.177Z,24.50
2023-11-23T00:08:05.000Z,20.90
2023-11-23T00:10:32.541Z,28.30
2023-11-23T00:13:00.146Z,30.00
2023-11-23T00:15:27.735Z,27.40
2023-11-23T00:17:55.326Z,24.40
2023-11-23T00:20:22.921Z,24.80
2023-11-23T00:22:50.467Z,26.30
2023-11-23T00:25:18.046Z,24.30
2023-11-23T00:27:45.629Z,28.00
2023-11-23T00:30:13.714Z,26.90
2023-11-23T00:32:41.438Z,23.50
2023-11-23T00:35:09.203Z,26.90
2023-11-23T00:37:36.726Z,32.50
2023-11-23T00:40:06.263Z,28.40
2023-11-23T00:42:34.341Z,26.30
2023-11-23T00:45:01.922Z,22.20
2023-11-23T00:47:29.784Z,25.80
2023-11-23T00:49:57.366Z,24.20
2023-11-23T00:52:25.237Z,29.20
2023-11-23T00:54:53.168Z,26.70
2023-11-23T00:57:20.845Z,27.50
2023-11-23T00:59:48.467Z,26.10
2023-11-23T01:02:16.244Z,27.80
2023-11-23T01:04:43.961Z,25.20
2023-11-23T01:07:11.486Z,29.50
2023-11-23T01:09:39.014Z,27.20
2023-11-23T01:12:09.648Z,29.80
2023-11-23T01:14:37.377Z,28.40
2023-11-23T01:17:05.686Z,33.40
2023-11-23T01:19:33.243Z,32.70
2023-11-23T01:22:00.797Z,28.30
2023-11-23T01:24:28.316Z,30.90
2023-11-23T01:26:55.894Z,30.50
2023-11-23T01:29:26.193Z,27.10
2023-11-23T01:31:53.707Z,28.90
2023-11-23T01:34:21.334Z,29.20
2023-11-23T01:36:48.883Z,29.40
2023-11-23T01:39:19.640Z,28.80
2023-11-23T01:41:47.238Z,32.30
2023-11-23T01:44:14.817Z,32.50
2023-11-23T01:46:42.329Z,30.40
2023-11-23T01:49:09.924Z,27.80
2023-11-23T01:51:37.432Z,33.90
2023-11-23T01:54:05.173Z,33.40
2023-11-23T01:56:33.072Z,30.50
2023-11-23T01:59:01.538Z,33.10
2023-11-23T02:01:29.642Z,33.60
2023-11-23T02:03:57.570Z,33.40
2023-11-23T02:06:25.527Z,35.90
2023-11-23T02:08:54.262Z,34.20
2023-11-23T02:11:22.102Z,30.40
2023-11-23T02:13:50.568Z,32.70
2023-11-23T02:16:18.346Z,37.40
2023-11-23T02:18:45.988Z,32.80
2023-11-23T02:21:13.839Z,32.50
2023-11-23T02:23:41.466Z,36.50
2023-11-23T02:26:09.046Z,40.00
2023-11-23T02:28:36.863Z,36.20
2023-11-23T02:31:04.576Z,34.40
2023-11-23T02:33:33.128Z,38.00
2023-11-23T02:36:00.890Z,40.50
2023-11-23T02:38:28.622Z,38.20
2023-11-23T02:40:56.275Z,33.20
2023-11-23T02:43:25.177Z,41.20
2023-11-23T02:45:56.439Z,34.00
2023-11-23T02:48:25.001Z,33.50
2023-11-23T02:50:53.086Z,33.70
2023-11-23T02:53:36.701Z,42.00
2023-11-23T02:56:04.550Z,38.20
2023-11-23T02:58:32.089Z,37.30
2023-11-23T03:00:59.745Z,40.60
2023-11-23T03:03:27.501Z,37.90
2023-11-23T03:05:55.289Z,34.50
2023-11-23T03:08:22.855Z,33.40
2023-11-23T03:10:50.437Z,34.60
2023-11-23T03:13:19.815Z,35.10
2023-11-23T03:15:50.278Z,37.90
2023-11-23T03:18:18.057Z,38.10
2023-11-23T03:20:47.128Z,37.10
2023-11-23T03:23:14.973Z,38.40
2023-11-23T03:25:42.518Z,36.90
2023-11-23T03:28:10.376Z,36.10
2023-11-23T03:30:37.896Z,39.50
2023-11-23T03:33:05.680Z,40.30
2023-11-23T03:35:33.330Z,47.50
2023-11-23T03:38:00.892Z,38.60
2023-11-23T03:40:28.430Z,37.30
2023-11-23T03:42:56.855Z,35.20
2023-11-23T03:45:24.517Z,35.50
2023-11-23T03:47:53.776Z,37.20
2023-11-23T03:50:21.562Z,34.00
2023-11-23T03:52:49.198Z,36.70
2023-11-23T03:55:16.802Z,34.60
2023-11-23T03:57:46.721Z,40.80
2023-11-23T04:00:15.155Z,33.00
2023-11-23T04:02:47.289Z,39.70
2023-11-23T04:05:18.987Z,36.10
2023-11-23T04:07:49.620Z,36.50
2023-11-23T04:10:17.294Z,35.70
2023-11-23T04:12:44.807Z,33.70
2023-11-23T04:15:13.562Z,39.60
2023-11-23T04:17:41.242Z,42.80
2023-11-23T04:20:09.111Z,43.70
2023-11-23T04:22:37.459Z,38.40
2023-11-23T04:25:05.614Z,37.20
2023-11-23T04:27:34.513Z,35.20
2023-11-23T04:30:02.136Z,39.40
2023-11-23T04:32:29.885Z,36.90
2023-11-23T04:34:57.790Z,35.50
2023-11-23T04:37:25.550Z,39.00
2023-11-23T04:39:53.239Z,40.50
2023-11-23T04:42:20.990Z,38.80
2023-11-23T04:44:48.731Z,38.40
2023-11-23T04:47:16.313Z,40.30
2023-11-23T04:49:44.257Z,37.00
2023-11-23T04:52:11.868Z,32.00
2023-11-23T04:54:39.716Z,39.40
2023-11-23T04:57:07.427Z,34.70
2023-11-23T04:59:34.990Z,35.20
2023-11-23T05:02:02.589Z,29.80
2023-11-23T05:04:30.271Z,29.80
2023-11-23T05:06:57.836Z,34.40
2023-11-23T05:09:25.475Z,35.60
2023-11-23T05:11:53.161Z,32.90
2023-11-23T05:14:20.816Z,43.10
2023-11-23T05:16:48.544Z,38.80
2023-11-23T05:19:24.276Z,33.60
2023-11-23T05:21:59.278Z,36.20
2023-11-23T05:24:26.853Z,31.80
2023-11-23T05:26:56.115Z,31.50
2023-11-23T05:29:23.769Z,32.10
2023-11-23T05:31:51.291Z,31.20
2023-11-23T05:34:18.819Z,28.50
2023-11-23T05:36:46.436Z,33.30
2023-11-23T05:39:14.151Z,33.70
2023-11-23T05:41:42.017Z,28.30
2023-11-23T05:44:09.653Z,31.40
2023-11-23T05:46:37.248Z,27.60
2023-11-23T05:49:04.812Z,22.60
2023-11-23T05:51:32.537Z,32.70
2023-11-23T05:54:00.384Z,26.40
2023-11-23T05:56:27.960Z,28.30
2023-11-23T05:58:55.533Z,24.60
2023-11-23T06:01:23.094Z,24.00
2023-11-23T06:03:50.899Z,24.90
2023-11-23T06:06:20.960Z,29.70
2023-11-23T06:08:49.741Z,31.00
2023-11-23T06:11:18.246Z,25.30
2023-11-23T06:13:47.077Z,23.90
2023-11-23T06:16:15.810Z,25.90
2023-11-23T06:18:43.814Z,25.40
2023-11-23T06:21:11.797Z,25.90
2023-11-23T06:23:39.389Z,31.90
2023-11-23T06:26:08.608Z,26.30
2023-11-23T06:28:36.378Z,24.60
2023-11-23T06:31:04.126Z,27.30
2023-11-23T06:33:31.827Z,28.80
2023-11-23T06:35:59.528Z,31.20
2023-11-23T06:38:27.103Z,29.60
2023-11-23T06:40:56.265Z,34.20
2023-11-23T06:43:23.900Z,29.10
2023-11-23T06:45:51.511Z,25.50
2023-11-23T06:48:19.121Z,24.50
2023-11-23T06:50:46.714Z,26.60
2023-11-23T06:53:14.663Z,29.20
2023-11-23T06:55:42.354Z,24.70
2023-11-23T06:58:11.751Z,25.20
2023-11-23T07:00:39.723Z,24.10
2023-11-23T07:03:07.518Z,24.80
2023-11-23T07:05:35.089Z,22.70
2023-11-23T07:08:02.658Z,26.80
2023-11-23T07:10:30.703Z,27.10
2023-11-23T07:12:58.240Z,22.30
2023-11-23T07:15:27.509Z,20.30
2023-11-23T07:17:57.584Z,21.60
2023-11-23T07:20:26.119Z,24.30
2023-11-23T07:22:53.934Z,22.30
2023-11-23T07:25:22.606Z,24.00
2023-11-23T07:27:53.412Z,24.10
2023-11-23T07:30:22.745Z,30.90
2023-11-23T07:32:51.689Z,30.00
2023-11-23T07:35:20.309Z,26.20
2023-11-23T07:37:51.385Z,25.30
2023-11-23T07:40:22.125Z,25.90
2023-11-23T07:42:51.522Z,28.00
2023-11-23T07:45:20.235Z,37.50
2023-11-23T07:47:48.066Z,40.80
2023-11-23T07:50:19.125Z,31.30
2023-11-23T07:52:48.000Z,30.50
2023-11-23T07:55:17.239Z,32.70
2023-11-23T07:57:49.449Z,32.60
2023-11-23T08:00:24.863Z,39.10
2023-11-23T08:02:58.853Z,33.20
2023-11-23T08:05:27.299Z,40.60
2023-11-23T08:07:57.488Z,34.80
2023-11-23T08:10:26.091Z,36.80
2023-11-23T08:12:54.979Z,35.40
2023-11-23T08:15:22.784Z,34.90
2023-11-23T08:17:58.577Z,36.70
2023-11-23T08:20:33.469Z,36.90
2023-11-23T08:23:02.062Z,39.90
2023-11-23T08:25:30.610Z,35.60
2023-11-23T08:28:02.884Z,43.00
2023-11-23T08:30:30.485Z,40.60
2023-11-23T08:33:00.237Z,41.80
2023-11-23T08:35:29.754Z,41.70
2023-11-23T08:37:57.401Z,43.90
2023-11-23T08:40:30.130Z,100.80
2023-11-23T08:42:58.267Z,49.10
2023-11-23T08:45:26.137Z,46.90
2023-11-23T08:47:54.582Z,52.40
2023-11-23T08:50:26.986Z,44.90
2023-11-23T08:52:58.911Z,43.40
2023-11-23T08:55:26.635Z,40.20
2023-11-23T08:57:54.773Z,49.30
2023-11-23T09:00:25.511Z,47.40
2023-11-23T09:02:55.552Z,48.70
2023-11-23T09:05:23.639Z,60.70
2023-11-23T09:07:51.516Z,63.00
2023-11-23T09:10:19.152Z,56.10
2023-11-23T09:12:46.823Z,55.70
2023-11-23T09:15:14.867Z,63.60
2023-11-23T09:17:42.869Z,72.20
2023-11-23T09:20:11.567Z,64.80
2023-11-23T09:22:40.179Z,66.90
2023-11-23T09:25:09.259Z,57.70
2023-11-23T09:27:38.202Z,61.70
2023-11-23T09:30:08.259Z,77.50
2023-11-23T09:32:40.103Z,59.50
2023-11-23T09:35:11.939Z,66.10
2023-11-23T09:37:40.900Z,64.10
2023-11-23T09:40:10.650Z,62.90
2023-11-23T09:42:40.101Z,37.90
2023-11-23T09:45:13.887Z,31.50
2023-11-23T09:47:43.503Z,27.30
2023-11-23T09:50:12.701Z,36.90
2023-11-23T09:52:43.093Z,59.40
2023-11-23T09:55:11.889Z,54.70
2023-11-23T09:57:40.986Z,52.20
2023-11-23T10:00:16.386Z,62.20
2023-11-23T10:02:46.447Z,56.60
2023-11-23T10:05:15.974Z,58.90
2023-11-23T10:07:44.664Z,54.70
2023-11-23T10:10:13.748Z,55.30
2023-11-23T10:12:41.788Z,61.40
2023-11-23T10:15:13.069Z,83.70
2023-11-23T10:17:43.636Z,56.60
2023-11-23T10:20:16.034Z,75.80
2023-11-23T10:22:48.146Z,58.50
2023-11-23T10:25:30.456Z,72.50
2023-11-23T10:27:59.730Z,86.90
2023-11-23T10:30:29.321Z,63.70
2023-11-23T10:32:59.237Z,71.30
2023-11-23T10:35:46.934Z,61.30
2023-11-23T10:38:17.786Z,55.20
2023-11-23T10:40:47.193Z,73.30
2023-11-23T10:43:18.641Z,64.60
2023-11-23T10:45:49.379Z,54.30
2023-11-23T10:48:18.170Z,59.30
2023-11-23T10:50:46.296Z,58.50
2023-11-23T10:53:16.484Z,65.10
2023-11-23T10:55:44.457Z,62.30
2023-11-23T10:58:18.021Z,62.40
2023-11-23T11:00:47.875Z,49.60
2023-11-23T11:03:18.271Z,61.10
2023-11-23T11:05:49.860Z,55.40
2023-11-23T11:08:22.162Z,51.00
2023-11-23T11:10:54.988Z,63.90
2023-11-23T11:13:26.309Z,54.30
2023-11-23T11:16:04.495Z,54.60
2023-11-23T11:18:36.153Z,60.70
2023-11-23T11:21:14.570Z,48.70
2023-11-23T11:23:53.137Z,55.50
2023-11-23T11:26:28.516Z,56.70
2023-11-23T11:28:58.809Z,45.80
2023-11-23T11:31:32.197Z,41.40
2023-11-23T11:34:02.112Z,46.60
2023-11-23T11:36:32.373Z,52.30
2023-11-23T11:39:01.652Z,51.40
2023-11-23T11:41:35.950Z,51.40
2023-11-23T11:44:08.795Z,47.20
2023-11-23T11:46:36.775Z,45.80
2023-11-23T11:49:04.693Z,51.00
2023-11-23T11:51:33.716Z,46.20
2023-11-23T11:54:01.888Z,48.30
2023-11-23T11:56:29.863Z,41.50
2023-11-23T11:59:00.303Z,45.40
2023-11-23T12:01:28.386Z,41.40
2023-11-23T12:03:56.901Z,47.00
2023-11-23T12:06:25.395Z,46.10
2023-11-23T12:08:53.344Z,47.80
2023-11-23T12:11:32.047Z,43.10
2023-11-23T12:14:01.341Z,46.50
2023-11-23T12:16:35.282Z,46.20
2023-11-23T12:19:17.783Z,48.00
2023-11-23T12:21:57.567Z,49.30
2023-11-23T12:24:29.298Z,45.50
2023-11-23T12:26:58.401Z,38.80
2023-11-23T12:29:31.421Z,40.10
2023-11-23T12:32:02.869Z,39.60
2023-11-23T12:34:32.145Z,39.80
2023-11-23T12:37:00.170Z,35.40
2023-11-23T12:39:30.930Z,271.20
2023-11-23T12:41:58.556Z,276.70
2023-11-23T12:44:26.648Z,51.50
2023-11-23T12:46:54.628Z,39.40
2023-11-23T12:49:22.528Z,41.30
2023-11-23T12:51:50.488Z,32.20
2023-11-23T12:54:18.400Z,38.70
2023-11-23T12:56:46.252Z,37.10
2023-11-23T12:59:15.836Z,30.80
2023-11-23T13:01:44.184Z,29.20
2023-11-23T13:04:12.854Z,34.70
2023-11-23T13:06:41.177Z,32.10
2023-11-23T13:09:16.555Z,32.00
2023-11-23T13:11:44.917Z,28.80
2023-11-23T13:14:13.260Z,24.30
2023-11-23T13:16:41.045Z,24.20
2023-11-23T13:19:17.204Z,23.60
2023-11-23T13:21:54.713Z,24.10
2023-11-23T13:24:22.611Z,24.50
2023-11-23T13:26:50.889Z,22.30
2023-11-23T13:29:20.075Z,22.90
2023-11-23T13:31:50.581Z,23.30
2023-11-23T13:34:20.179Z,22.40
2023-11-23T13:36:47.987Z,24.60
2023-11-23T13:39:18.929Z,26.60
2023-11-23T13:41:49.277Z,22.80
2023-11-23T13:44:16.914Z,22.70
2023-11-23T13:46:45.172Z,22.20
2023-11-23T13:49:14.712Z,19.90
2023-11-23T13:51:42.556Z,22.60
2023-11-23T13:54:10.869Z,24.10
2023-11-23T13:56:42.559Z,19.70
2023-11-23T13:59:12.222Z,21.50
2023-11-23T14:01:41.482Z,19.20
2023-11-23T14:04:14.125Z,23.30
2023-11-23T14:06:45.562Z,23.70
2023-11-23T14:09:19.590Z,20.80
2023-11-23T14:11:49.056Z,22.70
2023-11-23T14:14:17.350Z,28.50
2023-11-23T14:16:45.367Z,28.00
2023-11-23T14:19:17.316Z,26.70
2023-11-23T14:21:51.068Z,24.60
2023-11-23T14:24:20.587Z,30.20
2023-11-23T14:26:52.076Z,31.70
2023-11-23T14:29:19.795Z,37.00
2023-11-23T14:31:54.549Z,36.50
2023-11-23T14:34:25.000Z,36.50
2023-11-23T14:36:56.664Z,28.80
2023-11-23T14:39:28.169Z,30.70
2023-11-23T14:41:56.308Z,26.20
2023-11-23T14:44:24.237Z,21.00
2023-11-23T14:46:51.998Z,33.50
2023-11-23T14:49:21.551Z,62.30
2023-11-23T14:51:52.839Z,27.80
2023-11-23T14:54:32.067Z,34.40
2023-11-23T14:57:08.283Z,23.60
2023-11-23T14:59:37.017Z,24.30
2023-11-23T15:02:04.921Z,44.10
2023-11-23T15:04:34.732Z,38.70
2023-11-23T15:07:05.368Z,40.70
2023-11-23T15:09:33.228Z,33.20
2023-11-23T15:12:02.337Z,40.60
2023-11-23T15:14:29.999Z,54.00
2023-11-23T15:16:57.743Z,41.40
2023-11-23T15:19:25.431Z,38.70
2023-11-23T15:21:53.184Z,32.70
2023-11-23T15:24:22.255Z,26.60
2023-11-23T15:26:49.906Z,59.70
2023-11-23T15:29:17.521Z,37.40
2023-11-23T15:31:46.524Z,29.70
2023-11-23T15:34:14.234Z,29.10
2023-11-23T15:36:41.868Z,30.50
2023-11-23T15:39:12.322Z,27.60
2023-11-23T15:41:44.045Z,26.30
2023-11-23T15:44:11.653Z,24.70
2023-11-23T15:46:42.245Z,26.80
2023-11-23T15:49:12.114Z,24.20
2023-11-23T15:51:39.791Z,23.80
2023-11-23T15:54:08.348Z,22.90
2023-11-23T15:56:36.253Z,21.80
2023-11-23T15:59:07.464Z,29.80
2023-11-23T16:01:37.126Z,29.20
2023-11-23T16:04:05.077Z,21.50
2023-11-23T16:06:38.399Z,26.80
2023-11-23T16:09:12.797Z,24.00
2023-11-23T16:11:44.061Z,25.50
2023-11-23T16:14:12.097Z,25.80
2023-11-23T16:16:39.802Z,26.00
2023-11-23T16:19:10.615Z,22.60
2023-11-23T16:21:41.160Z,25.00
2023-11-23T16:24:11.592Z,27.40
2023-11-23T16:26:39.990Z,23.20
2023-11-23T16:29:11.771Z,29.60
2023-11-23T16:31:45.613Z,24.90
2023-11-23T16:34:15.859Z,29.20
2023-11-23T16:36:45.737Z,25.70
2023-11-23T16:39:18.349Z,32.70
2023-11-23T16:41:46.826Z,27.40
2023-11-23T16:44:17.888Z,29.20
2023-11-23T16:46:46.521Z,21.70
2023-11-23T16:49:15.242Z,26.20
2023-11-23T16:51:43.468Z,25.50
2023-11-23T16:54:11.200Z,30.20
2023-11-23T16:56:40.013Z,27.00
2023-11-23T16:59:10.797Z,28.40
2023-11-23T17:01:39.845Z,39.30
2023-11-23T17:04:07.880Z,28.10
2023-11-23T17:06:37.193Z,26.70
2023-11-23T17:09:05.926Z,32.30
2023-11-23T17:11:33.690Z,28.00
2023-11-23T17:14:03.987Z,28.20
2023-11-23T17:16:32.203Z,24.40
2023-11-23T17:19:00.035Z,33.70
2023-11-23T17:21:27.797Z,34.00
2023-11-23T17:23:55.503Z,25.00
2023-11-23T17:26:25.442Z,15.10
2023-11-23T17:28:55.480Z,10.30
2023-11-23T17:31:23.152Z,7.80
2023-11-23T17:33:50.967Z,16.40
2023-11-23T17:36:21.061Z,20.30
2023-11-23T17:38:49.236Z,20.60
2023-11-23T17:41:17.539Z,24.90
2023-11-23T17:43:47.451Z,28.30
2023-11-23T17:46:15.253Z,38.70
2023-11-23T17:48:42.980Z,34.20
2023-11-23T17:51:12.994Z,20.40
2023-11-23T17:53:42.227Z,14.50
2023-11-23T17:56:15.300Z,14.30
2023-11-23T17:58:43.014Z,24.20
2023-11-23T18:01:11.102Z,20.00
2023-11-23T18:03:39.058Z,19.10
2023-11-23T18:06:07.283Z,11.60
2023-11-23T18:08:35.102Z,16.50
2023-11-23T18:11:02.780Z,13.70
2023-11-23T18:13:30.477Z,13.30
2023-11-23T18:15:58.234Z,11.00
2023-11-23T18:18:26.574Z,14.10
2023-11-23T18:20:56.082Z,16.70
2023-11-23T18:23:25.224Z,11.30
2023-11-23T18:25:53.212Z,20.90
2023-11-23T18:28:21.676Z,18.40
2023-11-23T18:30:51.870Z,18.30
2023-11-23T18:33:20.523Z,143.50
2023-11-23T18:35:51.473Z,34.40
2023-11-23T18:38:19.184Z,76.10
2023-11-23T18:40:47.051Z,60.60
2023-11-23T18:43:15.574Z,45.50
2023-11-23T18:45:43.417Z,25.60
2023-11-23T18:48:11.288Z,21.90
2023-11-23T18:50:38.986Z,28.90
2023-11-23T18:53:06.705Z,17.40
2023-11-23T18:55:34.345Z,22.80
2023-11-23T18:58:01.985Z,17.30
2023-11-23T19:00:29.763Z,21.60
2023-11-23T19:03:00.186Z,26.80
2023-11-23T19:05:28.785Z,20.80
2023-11-23T19:07:56.726Z,23.60
2023-11-23T19:10:25.527Z,18.90
2023-11-23T19:13:03.311Z,19.50
2023-11-23T19:15:33.905Z,14.30
2023-11-23T19:18:04.108Z,17.00
2023-11-23T19:20:35.131Z,14.00
2023-11-23T19:23:03.720Z,25.00
2023-11-23T19:25:34.130Z,18.50
2023-11-23T19:28:02.928Z,18.30
2023-11-23T19:30:31.377Z,20.10
2023-11-23T19:33:04.906Z,27.00
2023-11-23T19:35:32.903Z,17.40
2023-11-23T19:38:00.768Z,18.00
2023-11-23T19:40:28.593Z,14.10
2023-11-23T19:42:57.156Z,17.20
2023-11-23T19:45:26.596Z,23.70
2023-11-23T19:47:55.071Z,17.40
2023-11-23T19:50:23.863Z,17.60
2023-11-23T19:52:54.998Z,16.80
2023-11-23T19:55:24.093Z,15.30
2023-11-23T19:57:51.872Z,16.80
2023-11-23T20:00:19.673Z,9.80
2023-11-23T20:02:47.821Z,10.40
2023-11-23T20:05:15.588Z,30.80
2023-11-23T20:07:43.253Z,19.20
2023-11-23T20:10:11.635Z,28.70
2023-11-23T20:12:40.292Z,18.10
2023-11-23T20:15:09.178Z,9.80
2023-11-23T20:17:36.841Z,15.70
2023-11-23T20:20:06.340Z,20.20
2023-11-23T20:22:34.100Z,9.50
2023-11-23T20:25:01.699Z,14.50
2023-11-23T20:27:29.324Z,18.20
2023-11-23T20:29:56.981Z,18.10
2023-11-23T20:32:24.612Z,14.00
2023-11-23T20:34:53.050Z,13.00
2023-11-23T20:37:20.995Z,10.20
2023-11-23T20:39:48.784Z,16.30
2023-11-23T20:42:17.666Z,13.80
2023-11-23T20:44:45.502Z,6.40
2023-11-23T20:47:13.257Z,12.50
2023-11-23T20:49:41.135Z,9.80
2023-11-23T20:52:09.930Z,17.00
2023-11-23T20:54:37.637Z,23.50
2023-11-23T20:57:06.959Z,15.40
2023-11-23T20:59:34.851Z,12.80
2023-11-23T21:02:04.229Z,10.50
2023-11-23T21:04:34.823Z,11.00
2023-11-23T21:07:04.644Z,8.00
2023-11-23T21:09:32.625Z,8.70
2023-11-23T21:12:03.372Z,12.00
2023-11-23T21:14:32.924Z,13.40
2023-11-23T21:17:01.353Z,13.70
2023-11-23T21:19:29.095Z,20.80
2023-11-23T21:21:56.787Z,21.60
2023-11-23T21:24:24.418Z,18.20
2023-11-23T21:26:53.057Z,14.20
2023-11-23T21:29:21.519Z,14.50
2023-11-23T21:31:49.143Z,15.20
2023-11-23T21:34:16.796Z,10.00
2023-11-23T21:36:44.532Z,12.70
2023-11-23T21:39:15.266Z,13.40
2023-11-23T21:41:43.161Z,13.30
2023-11-23T21:44:11.045Z,13.50
2023-11-23T21:46:39.027Z,16.40
2023-11-23T21:49:07.337Z,12.80
2023-11-23T21:51:36.141Z,11.10
2023-11-23T21:54:06.363Z,10.70
2023-11-23T21:56:34.021Z,11.70
2023-11-23T21:59:01.959Z,11.80
2023-11-23T22:01:31.697Z,15.70
2023-11-23T22:03:59.387Z,12.10
2023-11-23T22:06:27.079Z,11.90
2023-11-23T22:08:54.756Z,7.90
2023-11-23T22:11:22.537Z,9.60
2023-11-23T22:13:51.504Z,9.40
2023-11-23T22:16:19.251Z,9.90
2023-11-23T22:18:47.356Z,8.60
2023-11-23T22:21:15.514Z,9.10
2023-11-23T22:23:43.218Z,11.80
2023-11-23T22:26:12.534Z,10.00
2023-11-23T22:28:40.828Z,14.30
2023-11-23T22:31:12.996Z,23.30
2023-11-23T22:33:42.355Z,19.30
2023-11-23T22:36:13.352Z,25.70
2023-11-23T22:38:41.276Z,17.00
2023-11-23T22:41:09.342Z,93.70
2023-11-23T22:43:37.418Z,83.30
2023-11-23T22:46:05.515Z,33.50
2023-11-23T22:48:33.186Z,31.30
2023-11-23T22:51:00.827Z,24.50
2023-11-23T22:53:29.287Z,18.10
2023-11-23T22:55:57.535Z,24.00
2023-11-23T22:58:27.154Z,29.10
2023-11-23T23:00:54.871Z,11.20
2023-11-23T23:03:22.923Z,11.00
2023-11-23T23:05:52.014Z,11.20
2023-11-23T23:08:20.535Z,10.50
2023-11-23T23:10:50.390Z,9.50
2023-11-23T23:13:18.766Z,10.70
2023-11-23T23:15:46.422Z,10.60
2023-11-23T23:18:14.251Z,11.10
2023-11-23T23:20:42.055Z,14.70
2023-11-23T23:23:10.947Z,13.80
2023-11-23T23:25:39.993Z,11.30
2023-11-23T23:28:15.191Z,13.10
2023-11-23T23:30:46.404Z,22.70
2023-11-23T23:33:14.059Z,17.50
2023-11-23T23:35:41.756Z,18.70
2023-11-23T23:38:09.418Z,16.30
2023-11-23T23:40:36.986Z,8.50
2023-11-23T23:43:04.638Z,11.30
2023-11-23T23:45:32.572Z,13.40
2023-11-23T23:48:00.303Z,11.20
2023-11-23T23:50:28.011Z,12.40
2023-11-23T23:52:55.645Z,13.00
2023-11-23T23:55:23.476Z,14.10
2023-11-23T23:57:51.122Z,7.20
